Time;durP1;ratioP1;P1;durP2;ratioP2;P2;SDS_P1;SDS_P2;PMS_P1;PMS_P2;Temp;Humidity;BMP_temperature;BMP_pressure;BME280_temperature;BME280_humidity;BME280_pressure;Samples;Min_cycle;Max_cycle;Signal;HPM_P1;HPM_P2
2022/09/24 00:02:11;;;;;;;0.98;0.80;;;11.60;99.90;;;;;;4413156;32;20902;-75
2022/09/24 00:04:36;;;;;;;2.37;0.73;;;11.60;99.90;;;;;;4391364;32;20196;-75
2022/09/24 00:07:02;;;;;;;0.60;0.60;;;11.60;99.90;;;;;;4414517;32;20069;-76
2022/09/24 00:09:29;;;;;;;4.60;1.00;;;11.60;99.90;;;;;;4414903;32;20073;-76
2022/09/24 00:11:54;;;;;;;0.80;0.80;;;11.60;99.90;;;;;;4415281;32;20078;-76
2022/09/24 00:14:20;;;;;;;0.52;0.52;;;11.60;99.90;;;;;;4415348;32;20081;-75
2022/09/24 00:16:46;;;;;;;0.50;0.50;;;11.60;99.90;;;;;;4416028;32;20085;-75
2022/09/24 00:19:12;;;;;;;0.73;0.73;;;11.60;99.90;;;;;;4413050;32;20471;-75
2022/09/24 00:21:39;;;;;;;0.70;0.70;;;11.50;99.90;;;;;;4414730;32;20084;-75
2022/09/24 00:24:09;;;;;;;0.60;0.60;;;11.50;99.90;;;;;;4415216;32;20109;-76
2022/09/24 00:26:50;;;;;;;1.27;0.73;;;11.50;99.90;;;;;;4413849;32;20219;-76
2022/09/24 00:29:19;;;;;;;0.90;0.75;;;11.50;99.90;;;;;;4413363;32;20447;-76
2022/09/24 00:31:45;;;;;;;0.73;0.60;;;11.50;99.90;;;;;;4415694;32;20209;-76
2022/09/24 00:34:11;;;;;;;0.60;0.60;;;11.40;99.90;;;;;;4393170;32;20081;-76
2022/09/24 00:36:36;;;;;;;1.42;0.98;;;11.40;99.90;;;;;;4414172;32;20085;-76
2022/09/24 00:39:02;;;;;;;1.73;0.85;;;11.40;99.90;;;;;;4417072;32;20085;-75
2022/09/24 00:41:31;;;;;;;1.20;0.70;;;11.40;99.90;;;;;;4416624;32;20070;-77
2022/09/24 00:43:57;;;;;;;0.60;0.60;;;11.30;99.90;;;;;;4413499;32;20062;-75
2022/09/24 00:46:38;;;;;;;1.27;0.80;;;11.20;99.90;;;;;;4414579;32;20102;-76
2022/09/24 00:49:08;;;;;;;;;;;11.10;99.90;;;;;;4412867;32;20542;-75
2022/09/24 00:51:34;;;;;;;0.57;0.52;;;11.10;99.90;;;;;;4412463;32;20864;-75
2022/09/24 00:54:04;;;;;;;0.62;0.62;;;11.10;99.90;;;;;;4414518;32;20069;-75
2022/09/24 00:56:32;;;;;;;0.80;0.80;;;11.00;99.90;;;;;;4412916;32;20077;-78
2022/09/24 00:59:01;;;;;;;0.70;0.70;;;11.00;99.90;;;;;;4412541;32;20592;-76
2022/09/24 01:01:28;;;;;;;0.60;0.60;;;11.00;99.90;;;;;;4413599;32;20082;-76
2022/09/24 01:03:55;;;;;;;1.05;0.77;;;11.00;99.90;;;;;;4394275;32;20921;-76
2022/09/24 01:06:22;;;;;;;1.23;0.80;;;11.00;99.90;;;;;;4408773;32;20073;-75
2022/09/24 01:08:48;;;;;;;0.70;0.70;;;11.00;99.90;;;;;;4413082;32;20132;-76
2022/09/24 01:11:44;;;;;;;1.75;1.05;;;11.00;99.90;;;;;;4415067;32;20537;-76
2022/09/24 01:14:39;;;;;;;1.02;0.93;;;11.00;99.90;;;;;;4402126;32;20106;-76
2022/09/24 01:17:19;;;;;;;2.17;0.90;;;11.00;99.90;;;;;;4404660;32;20820;-76
2022/09/24 01:20:02;;;;;;;0.70;0.70;;;11.00;99.90;;;;;;4412336;32;20132;-76
2022/09/24 01:23:08;;;;;;;0.60;0.60;;;11.10;99.90;;;;;;4408346;32;20519;-76
2022/09/24 01:26:03;;;;;;;2.00;0.73;;;11.10;99.90;;;;;;4391444;32;20086;-75
2022/09/24 01:28:42;;;;;;;1.75;1.20;;;11.10;99.90;;;;;;4397837;32;20124;-76
2022/09/24 01:31:18;;;;;;;0.45;0.45;;;11.10;99.90;;;;;;4393941;32;20101;-75
2022/09/24 01:33:48;;;;;;;3.05;1.62;;;11.10;99.90;;;;;;4389886;32;20060;-75
2022/09/24 01:36:16;;;;;;;0.83;0.80;;;11.10;99.90;;;;;;4402604;32;20069;-76
2022/09/24 01:38:45;;;;;;;2.40;1.40;;;11.00;99.90;;;;;;4406082;32;20089;-75
2022/09/24 01:41:14;;;;;;;0.55;0.55;;;11.00;99.90;;;;;;4405402;32;20086;-75
2022/09/24 01:43:40;;;;;;;0.70;0.70;;;11.00;99.90;;;;;;4406270;32;20139;-75
2022/09/24 01:46:07;;;;;;;0.70;0.70;;;11.00;99.90;;;;;;4406681;32;20089;-76
2022/09/24 01:48:36;;;;;;;0.75;0.65;;;11.00;99.90;;;;;;4406446;32;20097;-76
2022/09/24 01:51:10;;;;;;;1.15;1.00;;;11.10;99.90;;;;;;4408357;32;20152;-75
2022/09/24 01:54:02;;;;;;;4.97;1.85;;;11.10;99.90;;;;;;4408220;32;20428;-75
2022/09/24 01:56:31;;;;;;;1.83;0.98;;;11.20;99.90;;;;;;4397086;32;20094;-75
2022/09/24 01:59:02;;;;;;;0.68;0.68;;;11.20;99.90;;;;;;4405286;32;20152;-75
2022/09/24 02:01:33;;;;;;;0.77;0.75;;;11.10;99.90;;;;;;4406746;32;20101;-76
2022/09/24 02:04:04;;;;;;;;;;;11.10;99.90;;;;;;4385452;32;20536;-77
2022/09/24 02:06:37;;;;;;;0.55;0.55;;;11.10;99.90;;;;;;4405743;32;20014;-75
2022/09/24 02:09:03;;;;;;;1.17;0.68;;;11.10;99.90;;;;;;4405207;32;20529;-74
2022/09/24 02:11:34;;;;;;;0.60;0.60;;;11.10;99.90;;;;;;4405368;32;20082;-74
2022/09/24 02:14:04;;;;;;;;;;;11.00;99.90;;;;;;4406856;32;20528;-74
2022/09/24 02:16:36;;;;;;;0.90;0.90;;;11.00;99.90;;;;;;4407387;32;19968;-74
2022/09/24 02:19:05;;;;;;;0.70;0.70;;;11.00;99.90;;;;;;4404246;32;20158;-76
2022/09/24 02:21:33;;;;;;;0.75;0.75;;;11.00;99.90;;;;;;4406981;32;20089;-75
2022/09/24 02:24:04;;;;;;;0.75;0.75;;;11.00;99.90;;;;;;4406568;32;20073;-75
2022/09/24 02:26:30;;;;;;;0.80;0.77;;;11.00;99.90;;;;;;4407110;32;20077;-75
2022/09/24 02:28:57;;;;;;;0.47;0.47;;;11.00;99.90;;;;;;4406335;32;20089;-75
2022/09/24 02:31:27;;;;;;;1.37;0.73;;;11.00;99.90;;;;;;4406534;32;20093;-75
2022/09/24 02:34:25;;;;;;;10.90;0.80;;;11.10;99.90;;;;;;4385315;32;20098;-75
2022/09/24 02:36:39;;;;;;;0.77;0.65;;;11.10;99.90;;;;;;4401787;32;20093;-75
2022/09/24 02:39:05;;;;;;;0.80;0.70;;;11.10;99.90;;;;;;4405204;32;20418;-75
2022/09/24 02:41:31;;;;;;;0.70;0.70;;;11.10;99.90;;;;;;4404084;32;20082;-75
2022/09/24 02:43:57;;;;;;;0.73;0.73;;;11.20;99.90;;;;;;4407145;32;20101;-75
2022/09/24 02:46:23;;;;;;;0.80;0.60;;;11.20;99.90;;;;;;4405321;32;20564;-76
2022/09/24 02:48:49;;;;;;;0.45;0.45;;;11.30;99.90;;;;;;4406966;32;20073;-75
2022/09/24 02:51:14;;;;;;;0.70;0.70;;;11.30;99.90;;;;;;4407003;32;20422;-76
2022/09/24 02:53:40;;;;;;;0.70;0.70;;;11.30;99.90;;;;;;4406090;32;20140;-75
2022/09/24 02:56:06;;;;;;;0.52;0.52;;;11.40;99.90;;;;;;4407771;32;20101;-75
2022/09/24 02:58:33;;;;;;;2.65;1.37;;;11.40;99.90;;;;;;4407410;32;20069;-75
2022/09/24 03:00:58;;;;;;;1.02;0.82;;;11.30;99.90;;;;;;4406541;32;20121;-75
2022/09/24 03:03:24;;;;;;;1.35;0.70;;;11.30;99.90;;;;;;4391721;32;20545;-75
2022/09/24 03:05:51;;;;;;;0.70;0.70;;;11.30;99.90;;;;;;4397646;32;20086;-75
2022/09/24 03:08:18;;;;;;;1.37;0.90;;;11.40;99.90;;;;;;4406971;32;20096;-75
2022/09/24 03:10:43;;;;;;;0.65;0.65;;;11.30;99.90;;;;;;4404207;32;20072;-75
2022/09/24 03:13:09;;;;;;;2.65;1.12;;;11.30;99.90;;;;;;4406660;32;20106;-75
2022/09/24 03:15:35;;;;;;;0.60;0.60;;;11.20;99.90;;;;;;4407891;32;20069;-74
2022/09/24 03:18:00;;;;;;;1.55;1.17;;;11.20;99.90;;;;;;4406522;32;20073;-76
2022/09/24 03:20:26;;;;;;;0.90;0.60;;;11.20;99.90;;;;;;4409093;32;20136;-75
2022/09/24 03:22:51;;;;;;;0.60;0.60;;;11.10;99.90;;;;;;4408003;32;20106;-75
2022/09/24 03:25:19;;;;;;;1.52;1.10;;;11.00;99.90;;;;;;4409303;32;20085;-75
2022/09/24 03:27:45;;;;;;;0.65;0.65;;;11.00;99.90;;;;;;4408554;32;20092;-75
2022/09/24 03:31:11;;;;;;;0.68;0.68;;;11.00;99.90;;;;;;4408926;32;20122;-76
2022/09/24 03:32:58;;;;;;;2.35;0.82;;;11.00;99.90;;;;;;4392899;32;20394;-75
2022/09/24 03:35:24;;;;;;;2.90;1.20;;;11.10;99.90;;;;;;4395442;32;20082;-75
2022/09/24 03:37:50;;;;;;;0.77;0.77;;;11.20;99.90;;;;;;4408738;32;20588;-75
2022/09/24 03:40:16;;;;;;;1.30;0.70;;;11.20;99.90;;;;;;4407783;32;20094;-75
2022/09/24 03:42:41;;;;;;;0.60;0.60;;;11.20;99.90;;;;;;4406954;32;20122;-75
2022/09/24 03:45:07;;;;;;;0.45;0.40;;;11.10;99.90;;;;;;4409324;32;20504;-74
2022/09/24 03:47:33;;;;;;;1.73;1.30;;;11.20;99.90;;;;;;4408631;32;20077;-75
2022/09/24 03:49:58;;;;;;;0.60;0.60;;;11.20;99.90;;;;;;4409055;32;20129;-75
2022/09/24 03:52:25;;;;;;;0.50;0.50;;;11.10;99.90;;;;;;4409536;32;20108;-76
2022/09/24 03:54:51;;;;;;;0.60;0.60;;;11.20;99.90;;;;;;4409761;32;20078;-75
2022/09/24 03:57:16;;;;;;;0.77;0.60;;;11.10;99.90;;;;;;4408412;32;20082;-74
2022/09/24 03:59:43;;;;;;;1.58;0.90;;;11.20;99.90;;;;;;4408251;32;20098;-75
2022/09/24 04:02:09;;;;;;;0.50;0.50;;;11.20;99.90;;;;;;4407588;32;20106;-75
2022/09/24 04:04:35;;;;;;;0.45;0.45;;;11.20;99.90;;;;;;4387036;32;20082;-75
2022/09/24 04:07:00;;;;;;;1.48;0.90;;;11.20;99.90;;;;;;4407688;32;20061;-75
2022/09/24 04:09:26;;;;;;;1.48;0.70;;;11.10;99.90;;;;;;4408220;32;20073;-75
2022/09/24 04:11:52;;;;;;;0.50;0.50;;;11.10;99.90;;;;;;4408257;32;20357;-76
2022/09/24 04:14:17;;;;;;;2.58;1.00;;;11.00;99.90;;;;;;4408353;32;20077;-76
2022/09/24 04:16:44;;;;;;;1.55;0.93;;;11.00;99.90;;;;;;4406178;32;20725;-75
2022/09/24 04:19:10;;;;;;;0.70;0.70;;;11.00;99.90;;;;;;4408468;32;20525;-75
2022/09/24 04:21:36;;;;;;;1.42;0.85;;;11.00;99.90;;;;;;4409343;32;20101;-75
2022/09/24 04:24:02;;;;;;;0.95;0.75;;;11.00;99.90;;;;;;4408650;32;20070;-74
2022/09/24 04:26:28;;;;;;;1.55;1.27;;;11.20;99.90;;;;;;4408050;32;20093;-75
2022/09/24 04:28:53;;;;;;;0.95;0.65;;;11.20;99.90;;;;;;4407353;32;20058;-75
2022/09/24 04:31:19;;;;;;;0.77;0.60;;;11.20;99.90;;;;;;4406527;32;20478;-75
2022/09/24 04:33:44;;;;;;;0.85;0.70;;;11.00;99.90;;;;;;4389259;32;20102;-75
2022/09/24 04:36:10;;;;;;;1.37;1.10;;;11.00;99.90;;;;;;4401214;32;20503;-75
2022/09/24 04:38:35;;;;;;;9.40;1.60;;;11.00;99.90;;;;;;4407481;32;20085;-75
2022/09/24 04:41:06;;;;;;;1.12;0.75;;;11.10;99.90;;;;;;4407615;32;20109;-75
2022/09/24 04:43:32;;;;;;;0.90;0.68;;;11.10;99.90;;;;;;4408658;32;20517;-75
2022/09/24 04:45:59;;;;;;;1.00;0.93;;;11.10;99.90;;;;;;4407089;32;20081;-75
2022/09/24 04:48:25;;;;;;;1.95;1.12;;;11.10;99.90;;;;;;4405886;32;20105;-75
2022/09/24 04:50:50;;;;;;;0.57;0.57;;;11.10;99.90;;;;;;4407420;32;20109;-74
2022/09/24 04:53:16;;;;;;;1.67;1.15;;;11.20;99.90;;;;;;4410216;32;20081;-75
2022/09/24 04:55:41;;;;;;;1.00;0.90;;;11.20;99.90;;;;;;4407307;32;20089;-75
2022/09/24 04:58:08;;;;;;;0.73;0.65;;;11.20;99.90;;;;;;4408117;32;20438;-76
2022/09/24 05:00:33;;;;;;;1.37;1.20;;;11.20;99.90;;;;;;4405567;32;20102;-74
2022/09/24 05:03:02;;;;;;;0.80;0.70;;;11.10;99.90;;;;;;4398540;32;20081;-74
2022/09/24 05:05:28;;;;;;;0.50;0.50;;;11.00;99.90;;;;;;4395450;32;20157;-75
2022/09/24 05:07:56;;;;;;;2.45;1.10;;;11.00;99.90;;;;;;4406816;32;20074;-75
2022/09/24 05:10:22;;;;;;;1.55;1.00;;;11.10;99.90;;;;;;4407662;32;20451;-75
2022/09/24 05:12:48;;;;;;;0.62;0.62;;;11.10;99.90;;;;;;4406364;32;20093;-75
2022/09/24 05:15:13;;;;;;;0.80;0.80;;;11.20;99.90;;;;;;4407699;32;20145;-74
2022/09/24 05:17:39;;;;;;;0.82;0.80;;;11.20;99.90;;;;;;4405087;32;20195;-75
2022/09/24 05:20:07;;;;;;;1.02;0.80;;;11.20;99.90;;;;;;4404633;32;20442;-75
2022/09/24 05:22:32;;;;;;;0.50;0.50;;;11.20;99.90;;;;;;4407120;32;20077;-76
2022/09/24 05:24:58;;;;;;;1.23;1.00;;;11.30;99.90;;;;;;4409111;32;20136;-76
2022/09/24 05:27:23;;;;;;;0.60;0.60;;;11.30;99.90;;;;;;4408216;32;20101;-76
2022/09/24 05:29:49;;;;;;;0.70;0.65;;;11.20;99.90;;;;;;4406992;32;20675;-75
2022/09/24 05:32:17;;;;;;;1.23;1.08;;;11.20;99.90;;;;;;4405890;32;20101;-76
2022/09/24 05:34:44;;;;;;;1.27;0.95;;;11.10;99.90;;;;;;4384324;32;20513;-76
2022/09/24 05:37:09;;;;;;;1.12;1.02;;;11.20;99.90;;;;;;4407962;32;20093;-76
2022/09/24 05:39:35;;;;;;;0.80;0.80;;;11.10;99.90;;;;;;4406215;32;20094;-76
2022/09/24 05:42:03;;;;;;;0.70;0.70;;;11.20;99.90;;;;;;4404022;32;20090;-75
2022/09/24 05:44:28;;;;;;;1.95;1.05;;;11.30;99.90;;;;;;4405174;32;20065;-75
2022/09/24 05:46:54;;;;;;;0.60;0.60;;;11.30;99.90;;;;;;4403467;32;20085;-75
2022/09/24 05:49:19;;;;;;;1.12;0.90;;;11.30;99.90;;;;;;4407113;32;20077;-76
2022/09/24 05:51:47;;;;;;;0.95;0.80;;;11.30;99.90;;;;;;4407855;32;20145;-76
2022/09/24 05:54:13;;;;;;;0.65;0.55;;;11.40;99.90;;;;;;4406788;32;20089;-75
2022/09/24 05:56:38;;;;;;;0.77;0.73;;;11.40;99.90;;;;;;4407267;32;20085;-75
2022/09/24 05:59:04;;;;;;;0.50;0.50;;;11.40;99.90;;;;;;4407531;32;20556;-76
2022/09/24 06:01:30;;;;;;;7.28;2.05;;;11.40;99.90;;;;;;4408102;32;20078;-76
2022/09/24 06:03:56;;;;;;;0.57;0.57;;;11.40;99.90;;;;;;4387234;32;20062;-75
2022/09/24 06:06:22;;;;;;;1.70;1.10;;;11.40;99.90;;;;;;4402033;32;20093;-75
2022/09/24 06:08:48;;;;;;;0.65;0.60;;;11.40;99.90;;;;;;4406583;32;20101;-75
2022/09/24 06:11:13;;;;;;;0.93;0.88;;;11.40;99.90;;;;;;4407371;32;20586;-75
2022/09/24 06:13:40;;;;;;;0.50;0.50;;;11.40;99.90;;;;;;4406887;32;20089;-76
2022/09/24 06:16:07;;;;;;;1.95;1.10;;;11.40;99.90;;;;;;4405217;32;20068;-76
2022/09/24 06:18:35;;;;;;;0.62;0.62;;;11.40;99.90;;;;;;4406466;32;20093;-76
2022/09/24 06:21:02;;;;;;;0.68;0.68;;;11.50;99.90;;;;;;4407378;32;20089;-76
2022/09/24 06:23:29;;;;;;;0.52;0.52;;;11.50;99.90;;;;;;4413107;32;20114;-76
2022/09/24 06:25:55;;;;;;;1.25;0.80;;;11.60;99.90;;;;;;4410987;32;20085;-76
2022/09/24 06:28:21;;;;;;;1.55;0.90;;;11.60;99.90;;;;;;4413408;32;20136;-76
2022/09/24 06:30:47;;;;;;;2.05;1.00;;;11.60;99.90;;;;;;4413625;32;20181;-76
2022/09/24 06:33:13;;;;;;;3.12;1.30;;;11.60;99.90;;;;;;4403880;32;20101;-76
2022/09/24 06:35:40;;;;;;;1.15;1.00;;;11.70;99.90;;;;;;4402643;32;20078;-76
2022/09/24 06:38:09;;;;;;;0.50;0.50;;;11.70;99.90;;;;;;4414707;32;20081;-76
2022/09/24 06:40:35;;;;;;;0.50;0.50;;;11.70;99.90;;;;;;4413717;32;20117;-77
2022/09/24 06:43:00;;;;;;;2.00;1.23;;;11.70;99.90;;;;;;4413215;32;20120;-75
2022/09/24 06:45:26;;;;;;;0.75;0.75;;;11.70;99.90;;;;;;4411882;32;20096;-76
2022/09/24 06:47:57;;;;;;;0.65;0.65;;;11.70;99.90;;;;;;4412510;32;20575;-74
2022/09/24 06:50:25;;;;;;;0.80;0.80;;;11.70;99.90;;;;;;4413065;32;20241;-74
2022/09/24 06:52:50;;;;;;;0.52;0.52;;;11.70;99.90;;;;;;4412718;32;20085;-75
2022/09/24 06:55:17;;;;;;;1.62;0.65;;;11.90;99.90;;;;;;4414987;32;20509;-75
2022/09/24 06:57:43;;;;;;;1.00;1.00;;;11.90;99.90;;;;;;4414160;32;20060;-75
2022/09/24 07:00:09;;;;;;;0.93;0.80;;;11.90;99.90;;;;;;4414554;32;20081;-75
2022/09/24 07:02:35;;;;;;;0.82;0.60;;;11.90;99.90;;;;;;4410440;32;20073;-76
2022/09/24 07:05:01;;;;;;;1.37;0.90;;;12.00;99.90;;;;;;4396156;32;20442;-77
2022/09/24 07:07:31;;;;;;;1.50;1.08;;;12.00;99.90;;;;;;4416441;32;20087;-75
2022/09/24 07:09:57;;;;;;;0.95;0.95;;;12.10;99.90;;;;;;4414924;32;20588;-75
2022/09/24 07:12:23;;;;;;;2.80;0.90;;;12.10;99.90;;;;;;4414038;32;20187;-75
2022/09/24 07:14:48;;;;;;;0.70;0.70;;;12.20;99.90;;;;;;4416263;32;20110;-75
2022/09/24 07:17:15;;;;;;;0.82;0.82;;;12.10;99.90;;;;;;4414536;32;20094;-77
2022/09/24 07:19:40;;;;;;;0.80;0.80;;;12.10;99.90;;;;;;4414511;32;20097;-76
2022/09/24 07:22:06;;;;;;;2.25;1.10;;;12.10;99.90;;;;;;4417067;32;20073;-76
2022/09/24 07:24:32;;;;;;;2.25;0.70;;;12.00;99.90;;;;;;4417611;32;20089;-76
2022/09/24 07:26:57;;;;;;;0.70;0.70;;;12.10;99.90;;;;;;4416637;32;20529;-75
2022/09/24 07:29:23;;;;;;;0.75;0.75;;;12.10;99.90;;;;;;4415174;32;20093;-76
2022/09/24 07:31:49;;;;;;;1.73;1.25;;;12.20;99.90;;;;;;4411022;32;20473;-76
2022/09/24 07:34:14;;;;;;;0.70;0.70;;;12.20;99.90;;;;;;4391783;32;20109;-75
2022/09/24 07:36:40;;;;;;;10.40;0.82;;;12.20;99.90;;;;;;4413097;32;20085;-76
2022/09/24 07:39:06;;;;;;;1.48;1.17;;;12.20;99.90;;;;;;4418355;32;20126;-75
2022/09/24 07:41:32;;;;;;;0.70;0.70;;;12.20;99.90;;;;;;4413403;32;20077;-75
2022/09/24 07:43:59;;;;;;;1.33;1.10;;;12.20;99.90;;;;;;4412808;32;20147;-76
2022/09/24 07:46:25;;;;;;;3.40;1.10;;;12.20;99.90;;;;;;4414288;32;20098;-78
2022/09/24 07:48:54;;;;;;;1.05;0.80;;;12.20;99.90;;;;;;4415077;32;20064;-75
2022/09/24 07:51:21;;;;;;;0.85;0.70;;;12.30;99.90;;;;;;4414484;32;20165;-75
2022/09/24 07:53:47;;;;;;;0.60;0.60;;;12.40;99.90;;;;;;4417290;32;20093;-75
2022/09/24 07:56:13;;;;;;;0.85;0.70;;;12.50;99.90;;;;;;4412288;32;20537;-75
2022/09/24 07:58:38;;;;;;;0.50;0.50;;;12.50;99.90;;;;;;4413045;32;20069;-76
2022/09/24 08:01:04;;;;;;;0.80;0.80;;;12.50;99.90;;;;;;4411671;32;20078;-77
2022/09/24 08:03:30;;;;;;;1.30;1.00;;;12.60;99.90;;;;;;4397607;32;20138;-76
2022/09/24 08:05:57;;;;;;;0.55;0.55;;;12.60;99.90;;;;;;4406580;32;20087;-75
2022/09/24 08:08:23;;;;;;;3.35;1.25;;;12.70;99.90;;;;;;4414281;32;20069;-75
2022/09/24 08:10:49;;;;;;;0.68;0.68;;;12.70;99.90;;;;;;4413550;32;20097;-76
2022/09/24 08:13:15;;;;;;;0.70;0.70;;;12.80;99.90;;;;;;4414246;32;20153;-74
2022/09/24 08:15:40;;;;;;;2.72;1.08;;;12.90;99.90;;;;;;4415421;32;20112;-75
2022/09/24 08:18:06;;;;;;;1.55;1.15;;;12.90;99.90;;;;;;4413510;32;20085;-74
2022/09/24 08:20:32;;;;;;;1.80;0.95;;;13.00;99.90;;;;;;4414114;32;20109;-75
2022/09/24 08:23:01;;;;;;;0.62;0.62;;;13.10;99.90;;;;;;4411695;32;20093;-74
2022/09/24 08:25:26;;;;;;;4.35;0.80;;;13.10;99.90;;;;;;4413825;32;20086;-75
2022/09/24 08:27:52;;;;;;;1.02;0.68;;;13.10;99.90;;;;;;4414359;32;20104;-74
2022/09/24 08:30:17;;;;;;;2.78;0.98;;;13.10;99.90;;;;;;4415712;32;20096;-75
2022/09/24 08:32:47;;;;;;;1.02;0.90;;;13.20;99.90;;;;;;4402322;32;86210;-75
2022/09/24 08:35:14;;;;;;;0.57;0.57;;;13.30;99.90;;;;;;4398220;32;20057;-76
2022/09/24 08:37:40;;;;;;;0.43;0.43;;;13.30;99.90;;;;;;4415823;32;21326;-74
2022/09/24 08:40:12;;;;;;;0.70;0.70;;;13.40;99.90;;;;;;4415869;32;21110;-76
2022/09/24 08:42:48;;;;;;;0.40;0.40;;;13.60;99.90;;;;;;4414228;32;21451;-75
2022/09/24 08:47:23;;;;;;;0.88;0.88;;;13.70;99.90;;;;;;4412273;32;20098;-76
2022/09/24 08:48:12;;;;;;;1.83;1.08;;;13.80;99.90;;;;;;4402879;32;20094;-77
2022/09/24 08:50:49;;;;;;;0.82;0.80;;;13.90;99.90;;;;;;4413692;32;20109;-76
2022/09/24 08:53:44;;;;;;;1.10;0.80;;;13.90;99.90;;;;;;4413688;32;21319;-76
2022/09/24 08:56:10;;;;;;;1.30;0.77;;;14.00;99.90;;;;;;4417874;32;20085;-75
2022/09/24 08:59:00;;;;;;;0.62;0.62;;;14.00;99.90;;;;;;4414966;32;20073;-76
2022/09/24 09:01:41;;;;;;;0.62;0.62;;;14.00;99.90;;;;;;4411992;32;20850;-75
2022/09/24 09:04:29;;;;;;;0.70;0.70;;;14.10;99.90;;;;;;4393228;32;20132;-76
2022/09/24 09:07:20;;;;;;;0.65;0.65;;;14.00;99.90;;;;;;4415965;32;20505;-74
2022/09/24 09:09:53;;;;;;;;;;;14.10;99.90;;;;;;4400636;32;20116;-75
2022/09/24 09:12:37;;;;;;;1.70;0.90;;;14.10;99.90;;;;;;4413493;32;20029;-74
2022/09/24 09:15:10;;;;;;;0.60;0.60;;;14.20;99.90;;;;;;4411845;32;20168;-75
2022/09/24 09:18:00;;;;;;;0.60;0.60;;;14.30;99.90;;;;;;4412798;32;20144;-74
2022/09/24 09:20:33;;;;;;;0.70;0.70;;;14.30;99.90;;;;;;4411670;32;20065;-74
2022/09/24 09:23:15;;;;;;;0.82;0.77;;;14.20;99.90;;;;;;4414120;32;20076;-75
2022/09/24 09:25:51;;;;;;;0.50;0.50;;;14.30;99.90;;;;;;4411360;32;20133;-75
2022/09/24 09:28:16;;;;;;;1.02;0.98;;;14.30;99.90;;;;;;4414145;32;20070;-76
2022/09/24 09:31:07;;;;;;;0.70;0.70;;;14.40;99.90;;;;;;4410277;32;20090;-75
2022/09/24 09:34:12;;;;;;;0.70;0.70;;;14.50;99.90;;;;;;4386285;32;20540;-75
2022/09/24 09:36:52;;;;;;;0.70;0.55;;;14.50;99.90;;;;;;4399619;32;20180;-75
2022/09/24 09:39:57;;;;;;;6.72;2.17;;;14.60;99.90;;;;;;4413006;32;20101;-75
2022/09/24 09:42:28;;;;;;;0.60;0.60;;;14.70;99.90;;;;;;4394217;32;20093;-75
2022/09/24 09:44:54;;;;;;;0.50;0.50;;;14.70;99.90;;;;;;4415751;32;20097;-75
2022/09/24 09:47:42;;;;;;;4.53;0.95;;;14.70;99.90;;;;;;4413196;32;20082;-75
2022/09/24 09:50:27;;;;;;;0.95;0.80;;;14.70;99.90;;;;;;4411639;32;20558;-75
2022/09/24 09:52:54;;;;;;;3.58;0.62;;;14.70;99.90;;;;;;4400292;32;20121;-74
2022/09/24 09:55:36;;;;;;;0.82;0.77;;;14.80;99.90;;;;;;4412429;32;20082;-75
2022/09/24 09:58:18;;;;;;;0.65;0.65;;;15.00;99.90;;;;;;4413701;32;20133;-75
2022/09/24 10:00:48;;;;;;;0.60;0.60;;;15.00;99.90;;;;;;4411744;32;20152;-75
2022/09/24 10:03:45;;;;;;;0.68;0.68;;;15.20;99.90;;;;;;4402825;32;20068;-75
2022/09/24 10:06:12;;;;;;;9.88;1.30;;;15.10;99.90;;;;;;4400977;32;20089;-75
2022/09/24 10:08:39;;;;;;;0.70;0.70;;;15.00;99.90;;;;;;4414062;32;20100;-75
2022/09/24 10:11:06;;;;;;;0.60;0.60;;;15.00;99.90;;;;;;4411199;32;20069;-75
2022/09/24 10:13:32;;;;;;;1.73;0.85;;;15.00;99.90;;;;;;4412753;32;20782;-76
2022/09/24 10:16:02;;;;;;;1.23;0.50;;;15.00;99.90;;;;;;4412443;32;20073;-75
2022/09/24 10:18:33;;;;;;;0.82;0.70;;;15.10;99.90;;;;;;4413972;32;20197;-75
2022/09/24 10:21:01;;;;;;;;;;;15.00;99.90;;;;;;4412019;32;20066;-75
2022/09/24 10:23:36;;;;;;;2.00;0.82;;;15.00;99.90;;;;;;4407309;32;21181;-75
2022/09/24 10:26:03;;;;;;;0.50;0.50;;;15.00;99.90;;;;;;4404941;32;20407;-75
2022/09/24 10:31:20;;;;;;;0.60;0.60;;;15.10;99.90;;;;;;4398652;32;20106;-75
2022/09/24 10:33:49;;;;;;;0.80;0.57;;;15.10;99.90;;;;;;4390196;32;20138;-75
2022/09/24 10:36:18;;;;;;;0.60;0.60;;;15.10;99.90;;;;;;4403708;32;20529;-75
2022/09/24 10:38:44;;;;;;;0.60;0.60;;;15.10;99.90;;;;;;4408228;32;20090;-75
2022/09/24 10:41:28;;;;;;;0.60;0.60;;;15.30;99.90;;;;;;4398922;32;20085;-75
2022/09/24 10:43:56;;;;;;;0.70;0.70;;;15.40;99.90;;;;;;4407732;32;20125;-76
2022/09/24 10:46:49;;;;;;;0.62;0.60;;;15.40;99.90;;;;;;4406010;32;20070;-75
2022/09/24 10:49:45;;;;;;;2.25;0.98;;;15.50;99.90;;;;;;4395407;32;20111;-76
2022/09/24 10:52:32;;;;;;;0.50;0.50;;;15.50;99.90;;;;;;4398154;32;20160;-75
2022/09/24 10:55:20;;;;;;;0.70;0.70;;;15.60;99.90;;;;;;4399721;32;20093;-75
2022/09/24 10:58:07;;;;;;;0.52;0.52;;;15.60;99.90;;;;;;4396108;32;20077;-74
2022/09/24 11:00:39;;;;;;;0.55;0.55;;;15.60;99.90;;;;;;4403705;32;20085;-74
2022/09/24 11:03:35;;;;;;;2.20;0.70;;;15.70;99.90;;;;;;4396173;32;20081;-75
2022/09/24 11:06:38;;;;;;;0.68;0.68;;;15.80;99.90;;;;;;4394587;32;20094;-75
2022/09/24 11:09:10;;;;;;;0.62;0.62;;;15.90;99.90;;;;;;4401396;32;20074;-75
2022/09/24 11:11:58;;;;;;;1.05;0.90;;;15.90;99.90;;;;;;4405674;32;20580;-74
2022/09/24 11:14:46;;;;;;;0.60;0.60;;;15.90;99.90;;;;;;4405136;32;20077;-76
2022/09/24 11:17:44;;;;;;;0.90;0.90;;;16.00;99.90;;;;;;4406558;32;20152;-76
2022/09/24 11:20:21;;;;;;;0.60;0.60;;;16.00;99.90;;;;;;4396643;32;20093;-76
2022/09/24 11:23:08;;;;;;;0.60;0.60;;;16.20;99.90;;;;;;4404426;32;20066;-75
2022/09/24 11:25:40;;;;;;;0.93;0.93;;;16.30;99.90;;;;;;4394710;32;20557;-75
2022/09/24 11:28:22;;;;;;;0.50;0.50;;;16.50;99.90;;;;;;4404009;32;20172;-75
2022/09/24 11:31:09;;;;;;;0.50;0.50;;;16.40;99.90;;;;;;4402511;32;20083;-74
2022/09/24 11:34:04;;;;;;;0.50;0.50;;;16.50;99.90;;;;;;4375512;32;20433;-75
2022/09/24 11:36:47;;;;;;;4.53;0.80;;;16.50;99.90;;;;;;4393480;32;20078;-75
2022/09/24 11:39:38;;;;;;;0.75;0.75;;;16.40;99.90;;;;;;4406690;32;20094;-75
2022/09/24 11:42:30;;;;;;;1.73;0.60;;;16.40;99.90;;;;;;4397504;32;20098;-75
2022/09/24 11:45:16;;;;;;;0.60;0.60;;;16.50;99.90;;;;;;4399651;32;20089;-75
2022/09/24 11:48:17;;;;;;;4.07;1.70;;;16.50;99.90;;;;;;4396371;32;20090;-75
2022/09/24 11:51:03;;;;;;;;;;;16.50;99.90;;;;;;4399722;32;20581;-74
2022/09/24 11:53:38;;;;;;;0.45;0.45;;;16.50;99.90;;;;;;4399437;32;19991;-75
2022/09/24 11:56:13;;;;;;;0.93;0.93;;;16.60;99.90;;;;;;4406530;32;20058;-75
2022/09/24 11:58:47;;;;;;;0.60;0.60;;;16.70;99.90;;;;;;4407269;32;20129;-76
2022/09/24 12:01:24;;;;;;;0.80;0.80;;;16.70;99.90;;;;;;4405068;32;20494;-75
2022/09/24 12:04:14;;;;;;;0.52;0.52;;;16.70;99.90;;;;;;4389360;32;20132;-74
2022/09/24 12:06:53;;;;;;;0.60;0.60;;;16.60;99.90;;;;;;4397099;32;20506;-74
2022/09/24 12:09:26;;;;;;;0.60;0.60;;;16.40;99.90;;;;;;4408712;32;20120;-74
2022/09/24 12:12:01;;;;;;;0.57;0.57;;;16.40;99.90;;;;;;4407800;32;20419;-75
2022/09/24 12:14:36;;;;;;;0.70;0.70;;;16.40;99.90;;;;;;4408016;32;20462;-74
2022/09/24 12:17:08;;;;;;;0.88;0.82;;;16.40;99.90;;;;;;4406491;32;20113;-75
2022/09/24 12:19:43;;;;;;;0.55;0.55;;;16.50;99.90;;;;;;4408036;32;20073;-74
2022/09/24 12:22:10;;;;;;;0.50;0.50;;;16.50;99.90;;;;;;4406828;32;20089;-75
2022/09/24 12:24:41;;;;;;;0.65;0.65;;;16.50;99.90;;;;;;4406360;32;20410;-75
2022/09/24 12:27:12;;;;;;;;;;;16.60;99.90;;;;;;4407325;32;20564;-74
2022/09/24 12:33:05;;;;;;;0.40;0.40;;;16.70;99.90;;;;;;4388558;32;20057;-75
2022/09/24 12:35:52;;;;;;;1.70;0.80;;;16.80;99.90;;;;;;4397511;32;20086;-74
2022/09/24 12:38:27;;;;;;;8.68;1.52;;;16.90;99.90;;;;;;4407746;32;20077;-75
2022/09/24 12:40:59;;;;;;;0.50;0.50;;;16.90;99.90;;;;;;4407967;32;20099;-75
2022/09/24 12:43:33;;;;;;;0.70;0.70;;;16.90;99.90;;;;;;4407727;32;20102;-75
2022/09/24 12:46:02;;;;;;;2.17;0.90;;;16.90;99.90;;;;;;4406761;32;20746;-75
2022/09/24 12:48:31;;;;;;;0.60;0.60;;;16.90;99.90;;;;;;4405865;32;20612;-75
2022/09/24 12:50:58;;;;;;;1.37;1.10;;;17.00;99.90;;;;;;4408376;32;20148;-75
2022/09/24 12:53:32;;;;;;;0.93;0.45;;;16.90;99.90;;;;;;4407055;32;20141;-75
2022/09/24 12:55:59;;;;;;;0.98;0.98;;;16.90;99.90;;;;;;4408205;32;20422;-75
2022/09/24 12:58:34;;;;;;;0.40;0.40;;;16.90;99.90;;;;;;4406912;32;20137;-75
2022/09/24 13:01:13;;;;;;;0.60;0.60;;;17.00;99.90;;;;;;4407377;32;20078;-75
2022/09/24 13:03:40;;;;;;;0.60;0.60;;;17.10;99.90;;;;;;4392004;32;20520;-74
2022/09/24 13:06:31;;;;;;;0.80;0.80;;;17.10;99.90;;;;;;4401694;32;20085;-75
2022/09/24 13:08:57;;;;;;;0.77;0.77;;;17.20;99.90;;;;;;4407422;32;20109;-74
2022/09/24 13:11:35;;;;;;;0.50;0.50;;;17.20;99.90;;;;;;4405921;32;20081;-75
2022/09/24 13:14:21;;;;;;;0.40;0.40;;;17.30;99.90;;;;;;4409265;32;20097;-76
2022/09/24 13:16:49;;;;;;;0.52;0.52;;;17.40;99.90;;;;;;4397489;32;20081;-75